Time;durP1;ratioP1;P1;durP2;ratioP2;P2;SDS_P1;SDS_P2;PMS_P1;PMS_P2;Temp;Humidity;BMP_temperature;BMP_pressure;BME280_temperature;BME280_humidity;BME280_pressure;Samples;Min_cycle;Max_cycle;Signal;HPM_P1;HPM_P2
2023/12/08 00:02:18;;;;;;;;;;;;;;;;;;5090959;28;19947;-65
2023/12/08 00:04:44;;;;;;;;;;;;;;;;;;5082530;28;19931;-65
2023/12/08 00:07:10;;;;;;;;;;;;;;;;;;5093685;28;19912;-65
2023/12/08 00:09:36;;;;;;;;;;;;;;;;;;5088999;28;19920;-65
2023/12/08 00:12:02;;;;;;;;;;;;;;;;;;5076711;28;20399;-65
2023/12/08 00:14:28;;;;;;;;;;;;;;;;;;5079507;28;19912;-64
2023/12/08 00:16:54;;;;;;;;;;;;;;;;;;5079149;28;19951;-63
2023/12/08 00:19:20;;;;;;;;;;;;;;;;;;5075573;28;20281;-63
2023/12/08 00:21:46;;;;;;;;;;;;;;;;;;5076214;28;19999;-64
2023/12/08 00:24:12;;;;;;;;;;;;;;;;;;5087613;28;19970;-63
2023/12/08 00:26:38;;;;;;;;;;;;;;;;;;5084107;28;20007;-64
2023/12/08 00:29:04;;;;;;;;;;;;;;;;;;5077951;28;20275;-63
2023/12/08 00:31:30;;;;;;;;;;;;;;;;;;5086065;28;19916;-63
2023/12/08 00:33:56;;;;;;;;;;;;;;;;;;5081932;28;19934;-63
2023/12/08 00:36:22;;;;;;;;;;;;;;;;;;5086007;28;19940;-63
2023/12/08 00:38:48;;;;;;;;;;;;;;;;;;5074093;28;19924;-63
2023/12/08 00:41:14;;;;;;;;;;;;;;;;;;5086980;28;20626;-63
2023/12/08 00:43:40;;;;;;;;;;;;;;;;;;5082181;28;19954;-63
2023/12/08 00:46:06;;;;;;;;;;;;;;;;;;5088556;28;20012;-64
2023/12/08 00:48:32;;;;;;;;;;;;;;;;;;5087933;28;19931;-63
2023/12/08 00:50:58;;;;;;;;;;;;;;;;;;5072737;28;20380;-62
2023/12/08 00:53:24;;;;;;;;;;;;;;;;;;5084461;28;19912;-63
2023/12/08 00:55:50;;;;;;;;;;;;;;;;;;5076628;28;19958;-63
2023/12/08 00:58:16;;;;;;;;;;;;;;;;;;5090520;28;19970;-63
2023/12/08 01:00:43;;;;;;;;;;;;;;;;;;5073825;28;19927;-63
2023/12/08 01:03:09;;;;;;;;;;;;;;;;;;5087713;28;20356;-64
2023/12/08 01:05:35;;;;;;;;;;;;;;;;;;5086850;28;19943;-64
2023/12/08 01:08:00;;;;;;;;;;;;;;;;;;5093042;28;19908;-64
2023/12/08 01:10:27;;;;;;;;;;;;;;;;;;5087091;28;19919;-63
2023/12/08 01:12:53;;;;;;;;;;;;;;;;;;5074931;28;20003;-63
2023/12/08 01:15:18;;;;;;;;;;;;;;;;;;5080093;28;20011;-63
2023/12/08 01:17:44;;;;;;;;;;;;;;;;;;5084650;28;19912;-63
2023/12/08 01:20:10;;;;;;;;;;;;;;;;;;5091644;28;19920;-63
2023/12/08 01:22:37;;;;;;;;;;;;;;;;;;5078803;28;20457;-63
2023/12/08 01:25:03;;;;;;;;;;;;;;;;;;5073911;28;19999;-65
2023/12/08 01:27:29;;;;;;;;;;;;;;;;;;5085118;28;20328;-65
2023/12/08 01:29:55;;;;;;;;;;;;;;;;;;5080938;28;19912;-65
2023/12/08 01:32:20;;;;;;;;;;;;;;;;;;5086095;28;19912;-65
2023/12/08 01:34:46;;;;;;;;;;;;;;;;;;5085575;28;19955;-65
2023/12/08 01:37:12;;;;;;;;;;;;;;;;;;5087663;28;19951;-65
2023/12/08 01:39:38;;;;;;;;;;;;;;;;;;5090012;28;20060;-66
2023/12/08 01:42:04;;;;;;;;;;;;;;;;;;5092053;28;19909;-65
2023/12/08 01:44:30;;;;;;;;;;;;;;;;;;5075546;28;19966;-65
2023/12/08 01:46:56;;;;;;;;;;;;;;;;;;5084770;28;20006;-65
2023/12/08 01:49:22;;;;;;;;;;;;;;;;;;5087908;28;19968;-65
2023/12/08 01:51:48;;;;;;;;;;;;;;;;;;5092517;28;20384;-65
2023/12/08 01:54:14;;;;;;;;;;;;;;;;;;5091542;28;19916;-65
2023/12/08 01:56:40;;;;;;;;;;;;;;;;;;5086191;28;19913;-65
2023/12/08 01:59:06;;;;;;;;;;;;;;;;;;5086431;28;20458;-65
2023/12/08 02:01:31;;;;;;;;;;;;;;;;;;5086679;28;19916;-63
2023/12/08 02:03:57;;;;;;;;;;;;;;;;;;5085960;28;19980;-63
2023/12/08 02:06:23;;;;;;;;;;;;;;;;;;5079852;28;19956;-63
2023/12/08 02:08:49;;;;;;;;;;;;;;;;;;5083749;28;19940;-63
2023/12/08 02:11:15;;;;;;;;;;;;;;;;;;5084121;28;20368;-64
2023/12/08 02:13:41;;;;;;;;;;;;;;;;;;5083316;28;19918;-63
2023/12/08 02:16:07;;;;;;;;;;;;;;;;;;5080724;28;19999;-63
2023/12/08 02:18:33;;;;;;;;;;;;;;;;;;5090342;28;20008;-63
2023/12/08 02:20:59;;;;;;;;;;;;;;;;;;5084436;28;20420;-63
2023/12/08 02:23:25;;;;;;;;;;;;;;;;;;5073376;28;19923;-63
2023/12/08 02:25:51;;;;;;;;;;;;;;;;;;5078749;28;20394;-63
2023/12/08 02:28:17;;;;;;;;;;;;;;;;;;5080269;28;19942;-63
2023/12/08 02:30:43;;;;;;;;;;;;;;;;;;5091589;28;20012;-63
2023/12/08 02:33:09;;;;;;;;;;;;;;;;;;5076759;28;20344;-63
2023/12/08 02:35:34;;;;;;;;;;;;;;;;;;5092647;28;19912;-63
2023/12/08 02:38:00;;;;;;;;;;;;;;;;;;5076019;28;20363;-63
2023/12/08 02:40:26;;;;;;;;;;;;;;;;;;5076914;28;19959;-63
2023/12/08 02:42:52;;;;;;;;;;;;;;;;;;5090689;28;19968;-63
2023/12/08 02:45:18;;;;;;;;;;;;;;;;;;5090389;28;20041;-63
2023/12/08 02:47:44;;;;;;;;;;;;;;;;;;5095343;28;19912;-63
2023/12/08 02:50:10;;;;;;;;;;;;;;;;;;5086962;28;20000;-63
2023/12/08 02:52:36;;;;;;;;;;;;;;;;;;5083839;28;20062;-64
2023/12/08 02:55:02;;;;;;;;;;;;;;;;;;5086796;28;19995;-64
2023/12/08 02:57:28;;;;;;;;;;;;;;;;;;5092064;28;19950;-63
2023/12/08 02:59:53;;;;;;;;;;;;;;;;;;5093564;28;19922;-63
2023/12/08 03:02:19;;;;;;;;;;;;;;;;;;5080456;28;20368;-63
2023/12/08 03:04:45;;;;;;;;;;;;;;;;;;5086609;28;19920;-63
2023/12/08 03:07:12;;;;;;;;;;;;;;;;;;5080749;28;20418;-63
2023/12/08 03:09:37;;;;;;;;;;;;;;;;;;5091283;28;19916;-63
2023/12/08 03:12:03;;;;;;;;;;;;;;;;;;5092461;28;20014;-63
2023/12/08 03:14:29;;;;;;;;;;;;;;;;;;5092659;28;20375;-63
2023/12/08 03:16:55;;;;;;;;;;;;;;;;;;5087057;28;19954;-63
2023/12/08 03:19:21;;;;;;;;;;;;;;;;;;5085348;28;19916;-62
2023/12/08 03:21:47;;;;;;;;;;;;;;;;;;5093932;28;20273;-63
2023/12/08 03:24:13;;;;;;;;;;;;;;;;;;5092201;28;19959;-62
2023/12/08 03:26:39;;;;;;;;;;;;;;;;;;5074611;28;19921;-63
2023/12/08 03:29:05;;;;;;;;;;;;;;;;;;5079449;28;20353;-62
2023/12/08 03:31:31;;;;;;;;;;;;;;;;;;5074768;28;19963;-63
2023/12/08 03:33:56;;;;;;;;;;;;;;;;;;5084478;28;19995;-63
2023/12/08 03:36:22;;;;;;;;;;;;;;;;;;5080914;28;19965;-63
2023/12/08 03:38:48;;;;;;;;;;;;;;;;;;5078299;28;19955;-63
2023/12/08 03:41:14;;;;;;;;;;;;;;;;;;5089714;28;20361;-63
2023/12/08 03:43:40;;;;;;;;;;;;;;;;;;5081241;28;19995;-63
2023/12/08 03:46:06;;;;;;;;;;;;;;;;;;5081607;28;19924;-63
2023/12/08 03:48:32;;;;;;;;;;;;;;;;;;5091312;28;19922;-62
2023/12/08 03:50:58;;;;;;;;;;;;;;;;;;5090576;28;20368;-63
2023/12/08 03:53:24;;;;;;;;;;;;;;;;;;5082929;28;19919;-63
2023/12/08 03:55:50;;;;;;;;;;;;;;;;;;5093899;28;20390;-63
2023/12/08 03:58:16;;;;;;;;;;;;;;;;;;5076455;28;20406;-63
2023/12/08 04:00:42;;;;;;;;;;;;;;;;;;5084273;28;19965;-63
2023/12/08 04:03:07;;;;;;;;;;;;;;;;;;5093403;28;19934;-63
2023/12/08 04:05:33;;;;;;;;;;;;;;;;;;5083718;28;19916;-63
2023/12/08 04:08:04;;;;;;;;;;;;;;;;;;5090969;28;19923;-63
2023/12/08 04:10:30;;;;;;;;;;;;;;;;;;5090389;28;19920;-62
2023/12/08 04:12:56;;;;;;;;;;;;;;;;;;5080920;28;20398;-63
2023/12/08 04:15:21;;;;;;;;;;;;;;;;;;5089798;28;20007;-63
2023/12/08 04:17:47;;;;;;;;;;;;;;;;;;5078437;28;20279;-63
2023/12/08 04:20:13;;;;;;;;;;;;;;;;;;5084554;28;20019;-63
2023/12/08 04:22:39;;;;;;;;;;;;;;;;;;5079195;28;19916;-63
2023/12/08 04:25:06;;;;;;;;;;;;;;;;;;5079295;28;20265;-63
2023/12/08 04:27:32;;;;;;;;;;;;;;;;;;5073404;28;20354;-63
2023/12/08 04:29:58;;;;;;;;;;;;;;;;;;5086041;28;19912;-63
2023/12/08 04:32:24;;;;;;;;;;;;;;;;;;5089764;28;19922;-63
2023/12/08 04:34:50;;;;;;;;;;;;;;;;;;5092406;28;19916;-63
2023/12/08 04:37:16;;;;;;;;;;;;;;;;;;5084705;28;19913;-63
2023/12/08 04:39:41;;;;;;;;;;;;;;;;;;5079403;28;19923;-63
2023/12/08 04:42:07;;;;;;;;;;;;;;;;;;5073726;28;19960;-63
2023/12/08 04:44:33;;;;;;;;;;;;;;;;;;5073138;28;20432;-64
2023/12/08 04:46:59;;;;;;;;;;;;;;;;;;5075211;28;19965;-63
2023/12/08 04:49:25;;;;;;;;;;;;;;;;;;5083153;28;19920;-64
2023/12/08 04:51:51;;;;;;;;;;;;;;;;;;5074742;28;20014;-63
2023/12/08 04:54:17;;;;;;;;;;;;;;;;;;5090750;28;19916;-63
2023/12/08 04:56:43;;;;;;;;;;;;;;;;;;5075926;28;20029;-63
2023/12/08 04:59:09;;;;;;;;;;;;;;;;;;5092048;28;19947;-63
2023/12/08 05:01:38;;;;;;;;;;;;;;;;;;5086889;28;19912;-64
2023/12/08 05:04:04;;;;;;;;;;;;;;;;;;5077897;28;20001;-63
2023/12/08 05:06:29;;;;;;;;;;;;;;;;;;5079905;28;19951;-63
2023/12/08 05:08:55;;;;;;;;;;;;;;;;;;5080398;28;19934;-63
2023/12/08 05:11:21;;;;;;;;;;;;;;;;;;5083847;28;20402;-63
2023/12/08 05:13:47;;;;;;;;;;;;;;;;;;5080923;28;19999;-64
2023/12/08 05:16:14;;;;;;;;;;;;;;;;;;5077438;28;19916;-64
2023/12/08 05:18:40;;;;;;;;;;;;;;;;;;5082222;28;19923;-64
2023/12/08 05:21:06;;;;;;;;;;;;;;;;;;5089416;28;19908;-64
2023/12/08 05:23:32;;;;;;;;;;;;;;;;;;5085980;28;19963;-64
2023/12/08 05:25:58;;;;;;;;;;;;;;;;;;5085585;28;19955;-63
2023/12/08 05:28:25;;;;;;;;;;;;;;;;;;5090864;28;19951;-63
2023/12/08 05:30:50;;;;;;;;;;;;;;;;;;5084966;28;19958;-63
2023/12/08 05:33:17;;;;;;;;;;;;;;;;;;5088106;28;19944;-63
2023/12/08 05:35:43;;;;;;;;;;;;;;;;;;5085700;28;19916;-63
2023/12/08 05:38:09;;;;;;;;;;;;;;;;;;5087483;28;20372;-63
2023/12/08 05:40:35;;;;;;;;;;;;;;;;;;5080838;28;20371;-63
2023/12/08 05:43:01;;;;;;;;;;;;;;;;;;5080194;28;19984;-63
2023/12/08 05:45:27;;;;;;;;;;;;;;;;;;5088958;28;19916;-63
2023/12/08 05:47:53;;;;;;;;;;;;;;;;;;5073870;28;19925;-63
2023/12/08 05:50:19;;;;;;;;;;;;;;;;;;5084471;28;20387;-62
2023/12/08 05:52:45;;;;;;;;;;;;;;;;;;5081814;28;20379;-62
2023/12/08 05:55:10;;;;;;;;;;;;;;;;;;5089660;28;19915;-63
2023/12/08 05:57:36;;;;;;;;;;;;;;;;;;5079624;28;20294;-63
2023/12/08 06:00:05;;;;;;;;;;;;;;;;;;5090812;28;19920;-63
2023/12/08 06:02:31;;;;;;;;;;;;;;;;;;5083917;28;19921;-63
2023/12/08 06:04:57;;;;;;;;;;;;;;;;;;5080223;28;20373;-63
2023/12/08 06:07:23;;;;;;;;;;;;;;;;;;5090771;28;19963;-63
2023/12/08 06:09:49;;;;;;;;;;;;;;;;;;5079638;28;19955;-63
2023/12/08 06:12:17;;;;;;;;;;;;;;;;;;5079328;28;20360;-63
2023/12/08 06:14:42;;;;;;;;;;;;;;;;;;5085937;28;19920;-63
2023/12/08 06:17:08;;;;;;;;;;;;;;;;;;5085784;28;19955;-63
2023/12/08 06:19:34;;;;;;;;;;;;;;;;;;5092647;28;19920;-63
2023/12/08 06:22:00;;;;;;;;;;;;;;;;;;5095880;28;19908;-62
2023/12/08 06:24:26;;;;;;;;;;;;;;;;;;5096008;28;20287;-62
2023/12/08 06:26:52;;;;;;;;;;;;;;;;;;5095065;28;19967;-63
2023/12/08 06:29:19;;;;;;;;;;;;;;;;;;5095504;28;20010;-63
2023/12/08 06:31:45;;;;;;;;;;;;;;;;;;5096015;28;19969;-62
2023/12/08 06:34:11;;;;;;;;;;;;;;;;;;5091846;28;19920;-65
2023/12/08 06:36:37;;;;;;;;;;;;;;;;;;5095710;28;20395;-65
2023/12/08 06:39:03;;;;;;;;;;;;;;;;;;5095462;28;20026;-65
2023/12/08 06:41:29;;;;;;;;;;;;;;;;;;5094995;28;20058;-65
2023/12/08 06:43:55;;;;;;;;;;;;;;;;;;5095371;28;20362;-65
2023/12/08 06:46:21;;;;;;;;;;;;;;;;;;5091023;28;19914;-65
2023/12/08 06:48:47;;;;;;;;;;;;;;;;;;5074302;28;19934;-65
2023/12/08 06:51:12;;;;;;;;;;;;;;;;;;5092965;28;20295;-65
2023/12/08 06:53:38;;;;;;;;;;;;;;;;;;5082673;28;19913;-65
2023/12/08 06:56:04;;;;;;;;;;;;;;;;;;5091870;28;20019;-65
2023/12/08 06:58:30;;;;;;;;;;;;;;;;;;5083032;28;19908;-65
2023/12/08 07:00:56;;;;;;;;;;;;;;;;;;5091544;28;20036;-65
2023/12/08 07:03:22;;;;;;;;;;;;;;;;;;5094350;28;19918;-65
2023/12/08 07:05:48;;;;;;;;;;;;;;;;;;5094039;28;19912;-65
2023/12/08 07:08:14;;;;;;;;;;;;;;;;;;5092638;28;19952;-65
2023/12/08 07:10:40;;;;;;;;;;;;;;;;;;5086198;28;19951;-65
2023/12/08 07:13:06;;;;;;;;;;;;;;;;;;5092322;28;19908;-65
2023/12/08 07:15:31;;;;;;;;;;;;;;;;;;5074266;28;20460;-65
2023/12/08 07:17:57;;;;;;;;;;;;;;;;;;5072593;28;20333;-65
2023/12/08 07:20:23;;;;;;;;;;;;;;;;;;5091365;28;19923;-65
2023/12/08 07:22:49;;;;;;;;;;;;;;;;;;5093795;28;19947;-65
2023/12/08 07:25:15;;;;;;;;;;;;;;;;;;5092012;28;19938;-65
2023/12/08 07:27:42;;;;;;;;;;;;;;;;;;5091262;28;20319;-65
2023/12/08 07:30:08;;;;;;;;;;;;;;;;;;5093710;28;20256;-65
2023/12/08 07:32:34;;;;;;;;;;;;;;;;;;5094007;28;19915;-65
2023/12/08 07:35:00;;;;;;;;;;;;;;;;;;5092069;28;20380;-65
2023/12/08 07:37:26;;;;;;;;;;;;;;;;;;5089032;28;19999;-65
2023/12/08 07:39:52;;;;;;;;;;;;;;;;;;5074780;28;20268;-66
2023/12/08 07:42:18;;;;;;;;;;;;;;;;;;5076794;28;20398;-65
2023/12/08 07:44:44;;;;;;;;;;;;;;;;;;5090572;28;19909;-60
2023/12/08 07:47:10;;;;;;;;;;;;;;;;;;5093756;28;19983;-60
2023/12/08 07:49:35;;;;;;;;;;;;;;;;;;5093180;28;19920;-60
2023/12/08 07:52:01;;;;;;;;;;;;;;;;;;5072312;28;19959;-60
2023/12/08 07:54:31;;;;;;;;;;;;;;;;;;5085994;28;20004;-60
2023/12/08 07:56:57;;;;;;;;;;;;;;;;;;5090024;28;19919;-61
2023/12/08 07:59:23;;;;;;;;;;;;;;;;;;5092855;28;19952;-61
2023/12/08 08:01:49;;;;;;;;;;;;;;;;;;5084204;28;19912;-59
2023/12/08 08:04:16;;;;;;;;;;;;;;;;;;5092659;28;20372;-60
2023/12/08 08:06:42;;;;;;;;;;;;;;;;;;5082549;28;19923;-59
2023/12/08 08:09:08;;;;;;;;;;;;;;;;;;5082864;28;19916;-60
2023/12/08 08:11:34;;;;;;;;;;;;;;;;;;5091552;28;20055;-60
2023/12/08 08:14:00;;;;;;;;;;;;;;;;;;5092820;28;19961;-59
2023/12/08 08:16:26;;;;;;;;;;;;;;;;;;5092154;28;19916;-60
2023/12/08 08:18:52;;;;;;;;;;;;;;;;;;5083334;28;20455;-60
2023/12/08 08:21:18;;;;;;;;;;;;;;;;;;5083862;28;19912;-61
2023/12/08 08:23:44;;;;;;;;;;;;;;;;;;5083080;28;20007;-59
2023/12/08 08:26:10;;;;;;;;;;;;;;;;;;5080420;28;19920;-60
2023/12/08 08:28:36;;;;;;;;;;;;;;;;;;5087788;28;19998;-59
2023/12/08 08:31:02;;;;;;;;;;;;;;;;;;5082370;28;19909;-59
2023/12/08 08:33:28;;;;;;;;;;;;;;;;;;5069977;28;20368;-59
2023/12/08 08:35:53;;;;;;;;;;;;;;;;;;5085385;28;19915;-60
2023/12/08 08:38:19;;;;;;;;;;;;;;;;;;5079932;28;19912;-59
2023/12/08 08:40:45;;;;;;;;;;;;;;;;;;5090008;28;20008;-61
2023/12/08 08:43:11;;;;;;;;;;;;;;;;;;5084068;28;19912;-59
2023/12/08 08:45:37;;;;;;;;;;;;;;;;;;5079946;28;19951;-59
2023/12/08 08:48:03;;;;;;;;;;;;;;;;;;5082926;28;20376;-60
2023/12/08 08:50:29;;;;;;;;;;;;;;;;;;5071883;28;19919;-60
2023/12/08 08:52:55;;;;;;;;;;;;;;;;;;5082427;28;20000;-59
2023/12/08 08:55:21;;;;;;;;;;;;;;;;;;5090570;28;19951;-65
2023/12/08 08:57:47;;;;;;;;;;;;;;;;;;5087296;28;19995;-65
2023/12/08 09:00:14;;;;;;;;;;;;;;;;;;5087426;28;20283;-65
2023/12/08 09:02:40;;;;;;;;;;;;;;;;;;5090951;28;19908;-65
2023/12/08 09:05:06;;;;;;;;;;;;;;;;;;5087186;28;20033;-65
2023/12/08 09:07:32;;;;;;;;;;;;;;;;;;5091148;28;20002;-66
2023/12/08 09:09:58;;;;;;;;;;;;;;;;;;5091246;28;19908;-65
2023/12/08 09:12:24;;;;;;;;;;;;;;;;;;5077243;28;20755;-65
2023/12/08 09:14:50;;;;;;;;;;;;;;;;;;5084476;28;20027;-65
2023/12/08 09:17:16;;;;;;;;;;;;;;;;;;5081291;28;19912;-65
2023/12/08 09:19:42;;;;;;;;;;;;;;;;;;5077620;28;19922;-65
2023/12/08 09:22:08;;;;;;;;;;;;;;;;;;5077073;28;19911;-64
2023/12/08 09:24:34;;;;;;;;;;;;;;;;;;5091773;28;20449;-65
2023/12/08 09:27:01;;;;;;;;;;;;;;;;;;5089079;28;19920;-66
2023/12/08 09:29:27;;;;;;;;;;;;;;;;;;5076544;28;19912;-65
2023/12/08 09:31:52;;;;;;;;;;;;;;;;;;5077231;28;20356;-65
2023/12/08 09:34:18;;;;;;;;;;;;;;;;;;5083685;28;19919;-65
2023/12/08 09:36:44;;;;;;;;;;;;;;;;;;5091362;28;19991;-66
2023/12/08 09:39:10;;;;;;;;;;;;;;;;;;5091511;28;20330;-65
2023/12/08 09:41:36;;;;;;;;;;;;;;;;;;5079523;28;19952;-65
2023/12/08 09:44:02;;;;;;;;;;;;;;;;;;5085517;28;20069;-66
2023/12/08 09:46:28;;;;;;;;;;;;;;;;;;5094403;28;19995;-65
2023/12/08 09:48:54;;;;;;;;;;;;;;;;;;5078135;28;20402;-66
2023/12/08 09:51:20;;;;;;;;;;;;;;;;;;5097058;28;20010;-66
2023/12/08 09:53:46;;;;;;;;;;;;;;;;;;5093789;28;20003;-65
2023/12/08 09:56:12;;;;;;;;;;;;;;;;;;5097455;28;20449;-65
2023/12/08 09:58:38;;;;;;;;;;;;;;;;;;5098073;28;20011;-65
2023/12/08 10:01:04;;;;;;;;;;;;;;;;;;5097781;28;20277;-65
2023/12/08 10:03:30;;;;;;;;;;;;;;;;;;5090098;28;19919;-64
2023/12/08 10:05:56;;;;;;;;;;;;;;;;;;5090116;28;20283;-60
2023/12/08 10:08:21;;;;;;;;;;;;;;;;;;5097980;28;19908;-59
2023/12/08 10:10:47;;;;;;;;;;;;;;;;;;5092899;28;19995;-59
2023/12/08 10:13:13;;;;;;;;;;;;;;;;;;5085733;28;20274;-59
2023/12/08 10:15:39;;;;;;;;;;;;;;;;;;5083599;28;19908;-60
2023/12/08 10:18:05;;;;;;;;;;;;;;;;;;5084532;28;19999;-60
2023/12/08 10:20:31;;;;;;;;;;;;;;;;;;5088561;28;19939;-60
2023/12/08 10:22:57;;;;;;;;;;;;;;;;;;5090150;28;19944;-59
2023/12/08 10:25:23;;;;;;;;;;;;;;;;;;5098109;28;20414;-61
2023/12/08 10:27:53;;;;;;;;;;;;;;;;;;5086108;28;20675;-60
2023/12/08 10:30:19;;;;;;;;;;;;;;;;;;5083262;28;19909;-59
2023/12/08 10:32:45;;;;;;;;;;;;;;;;;;5083553;28;19919;-60
2023/12/08 10:35:14;;;;;;;;;;;;;;;;;;5096176;28;19908;-60
2023/12/08 10:37:40;;;;;;;;;;;;;;;;;;5078424;28;19962;-60
2023/12/08 10:40:06;;;;;;;;;;;;;;;;;;5094964;28;20009;-60
2023/12/08 10:42:32;;;;;;;;;;;;;;;;;;5084546;28;19928;-59
2023/12/08 10:44:57;;;;;;;;;;;;;;;;;;5083579;28;19930;-60
2023/12/08 10:47:23;;;;;;;;;;;;;;;;;;5097640;28;19916;-59
2023/12/08 10:49:49;;;;;;;;;;;;;;;;;;5091316;28;20221;-59
2023/12/08 10:52:15;;;;;;;;;;;;;;;;;;5077340;28;19971;-60
2023/12/08 10:54:41;;;;;;;;;;;;;;;;;;5087510;28;19908;-60
2023/12/08 10:57:07;;;;;;;;;;;;;;;;;;5079244;28;19917;-60
2023/12/08 10:59:33;;;;;;;;;;;;;;;;;;5093252;28;19916;-59
2023/12/08 11:01:59;;;;;;;;;;;;;;;;;;5094266;28;20381;-60
2023/12/08 11:04:25;;;;;;;;;;;;;;;;;;5094287;28;19908;-59
2023/12/08 11:06:50;;;;;;;;;;;;;;;;;;5088882;28;19946;-61
2023/12/08 11:09:16;;;;;;;;;;;;;;;;;;5084746;28;19912;-59
2023/12/08 11:11:42;;;;;;;;;;;;;;;;;;5085564;28;19913;-60
2023/12/08 11:14:08;;;;;;;;;;;;;;;;;;5083307;28;20012;-62
2023/12/08 11:16:34;;;;;;;;;;;;;;;;;;5094208;28;20048;-64
2023/12/08 11:19:00;;;;;;;;;;;;;;;;;;5094054;28;19920;-64
2023/12/08 11:21:26;;;;;;;;;;;;;;;;;;5078601;28;19976;-63
2023/12/08 11:23:52;;;;;;;;;;;;;;;;;;5080830;28;19953;-64
2023/12/08 11:26:18;;;;;;;;;;;;;;;;;;5089753;28;19942;-64
2023/12/08 11:28:44;;;;;;;;;;;;;;;;;;5094083;28;19956;-64
2023/12/08 11:31:10;;;;;;;;;;;;;;;;;;5093449;28;20425;-63
2023/12/08 11:33:36;;;;;;;;;;;;;;;;;;5093849;28;19908;-63
2023/12/08 11:36:02;;;;;;;;;;;;;;;;;;5091978;28;19912;-63
2023/12/08 11:38:28;;;;;;;;;;;;;;;;;;5091808;28;20020;-63
2023/12/08 11:40:57;;;;;;;;;;;;;;;;;;5082674;28;20011;-63
2023/12/08 11:43:23;;;;;;;;;;;;;;;;;;5093675;28;19935;-63
2023/12/08 11:45:49;;;;;;;;;;;;;;;;;;5079988;28;19912;-63
2023/12/08 11:48:15;;;;;;;;;;;;;;;;;;5093662;28;19916;-63
2023/12/08 11:50:41;;;;;;;;;;;;;;;;;;5093142;28;19908;-63
2023/12/08 11:53:07;;;;;;;;;;;;;;;;;;5091437;28;19958;-63
2023/12/08 11:55:33;;;;;;;;;;;;;;;;;;5089242;28;19916;-63
2023/12/08 11:57:59;;;;;;;;;;;;;;;;;;5093286;28;19923;-63
2023/12/08 12:00:25;;;;;;;;;;;;;;;;;;5093491;28;20361;-63
2023/12/08 12:02:51;;;;;;;;;;;;;;;;;;5091178;28;20006;-62
2023/12/08 12:05:17;;;;;;;;;;;;;;;;;;5093130;28;20046;-63
2023/12/08 12:07:45;;;;;;;;;;;;;;;;;;5093023;28;20109;-64
2023/12/08 12:10:11;;;;;;;;;;;;;;;;;;5092848;28;19916;-63
2023/12/08 12:12:37;;;;;;;;;;;;;;;;;;5078001;28;19958;-63
2023/12/08 12:15:04;;;;;;;;;;;;;;;;;;5085371;28;19916;-63
2023/12/08 12:17:29;;;;;;;;;;;;;;;;;;5093065;28;20372;-63
2023/12/08 12:19:55;;;;;;;;;;;;;;;;;;5090724;28;19959;-63
2023/12/08 12:22:21;;;;;;;;;;;;;;;;;;5089690;28;19912;-63
2023/12/08 12:24:47;;;;;;;;;;;;;;;;;;5080258;28;19908;-63
2023/12/08 12:27:14;;;;;;;;;;;;;;;;;;5090992;28;19967;-63
2023/12/08 12:29:40;;;;;;;;;;;;;;;;;;5072068;28;20011;-63
2023/12/08 12:32:08;;;;;;;;;;;;;;;;;;5092020;28;20006;-63
2023/12/08 12:34:33;;;;;;;;;;;;;;;;;;5092659;28;19912;-63
2023/12/08 12:36:59;;;;;;;;;;;;;;;;;;5085912;28;20335;-62
2023/12/08 12:39:25;;;;;;;;;;;;;;;;;;5090544;28;19955;-63
2023/12/08 12:41:51;;;;;;;;;;;;;;;;;;5089362;28;19951;-63
2023/12/08 12:44:17;;;;;;;;;;;;;;;;;;5072093;28;20295;-63
2023/12/08 12:46:43;;;;;;;;;;;;;;;;;;5084296;28;19919;-64
2023/12/08 12:49:09;;;;;;;;;;;;;;;;;;5071471;28;19948;-64
2023/12/08 12:51:35;;;;;;;;;;;;;;;;;;5077638;28;19908;-63
2023/12/08 12:54:01;;;;;;;;;;;;;;;;;;5092243;28;19951;-63
2023/12/08 12:56:27;;;;;;;;;;;;;;;;;;5072450;28;19912;-63
2023/12/08 12:58:53;;;;;;;;;;;;;;;;;;5084585;28;20576;-63
2023/12/08 13:01:20;;;;;;;;;;;;;;;;;;5088014;28;20174;-63
2023/12/08 13:03:45;;;;;;;;;;;;;;;;;;5090265;28;19985;-63
2023/12/08 13:06:11;;;;;;;;;;;;;;;;;;5092005;28;20390;-63
2023/12/08 13:08:37;;;;;;;;;;;;;;;;;;5091939;28;19956;-63
2023/12/08 13:11:03;;;;;;;;;;;;;;;;;;5090400;28;19912;-63
2023/12/08 13:13:29;;;;;;;;;;;;;;;;;;5082771;28;19923;-63
2023/12/08 13:15:55;;;;;;;;;;;;;;;;;;5078805;28;19959;-63
2023/12/08 13:18:21;;;;;;;;;;;;;;;;;;5085584;28;20011;-63
2023/12/08 13:20:47;;;;;;;;;;;;;;;;;;5091502;28;19943;-63
2023/12/08 13:23:13;;;;;;;;;;;;;;;;;;5072929;28;20348;-63
2023/12/08 13:25:39;;;;;;;;;;;;;;;;;;5079228;28;19912;-63
2023/12/08 13:28:04;;;;;;;;;;;;;;;;;;5091804;28;19916;-63
2023/12/08 13:30:30;;;;;;;;;;;;;;;;;;5091418;28;19953;-63
2023/12/08 13:32:56;;;;;;;;;;;;;;;;;;5071681;28;19995;-63
2023/12/08 13:35:22;;;;;;;;;;;;;;;;;;5078372;28;19919;-65
2023/12/08 13:37:49;;;;;;;;;;;;;;;;;;5077287;28;19909;-65
2023/12/08 13:40:15;;;;;;;;;;;;;;;;;;5086435;28;20351;-64
2023/12/08 13:42:41;;;;;;;;;;;;;;;;;;5078018;28;19962;-65
2023/12/08 13:45:06;;;;;;;;;;;;;;;;;;5088501;28;19912;-65
2023/12/08 13:47:32;;;;;;;;;;;;;;;;;;5080397;28;20355;-65
2023/12/08 13:49:58;;;;;;;;;;;;;;;;;;5078813;28;20006;-65
2023/12/08 13:52:24;;;;;;;;;;;;;;;;;;5075030;28;19912;-65
2023/12/08 13:54:50;;;;;;;;;;;;;;;;;;5087776;28;19939;-65
2023/12/08 13:57:16;;;;;;;;;;;;;;;;;;5086328;28;20049;-65
2023/12/08 13:59:42;;;;;;;;;;;;;;;;;;5088493;28;19971;-65
2023/12/08 14:02:08;;;;;;;;;;;;;;;;;;5076672;28;19912;-64
2023/12/08 14:04:34;;;;;;;;;;;;;;;;;;5091160;28;19954;-65
2023/12/08 14:07:01;;;;;;;;;;;;;;;;;;5082475;28;20007;-65
2023/12/08 14:09:27;;;;;;;;;;;;;;;;;;5087471;28;20007;-65
2023/12/08 14:11:53;;;;;;;;;;;;;;;;;;5079109;28;20411;-65
2023/12/08 14:14:19;;;;;;;;;;;;;;;;;;5081115;28;19912;-65
2023/12/08 14:16:45;;;;;;;;;;;;;;;;;;5074511;28;20322;-65
2023/12/08 14:19:11;;;;;;;;;;;;;;;;;;5091174;28;19955;-65
2023/12/08 14:21:37;;;;;;;;;;;;;;;;;;5090960;28;19915;-64
2023/12/08 14:24:03;;;;;;;;;;;;;;;;;;5086402;28;19912;-65
2023/12/08 14:26:29;;;;;;;;;;;;;;;;;;5086526;28;19920;-64
2023/12/08 14:28:55;;;;;;;;;;;;;;;;;;5080533;28;20016;-65
2023/12/08 14:31:21;;;;;;;;;;;;;;;;;;5094881;28;19992;-64
2023/12/08 14:33:47;;;;;;;;;;;;;;;;;;5094659;28;20379;-64
2023/12/08 14:36:12;;;;;;;;;;;;;;;;;;5095129;28;19908;-64
2023/12/08 14:38:38;;;;;;;;;;;;;;;;;;5087573;28;19999;-65
2023/12/08 14:41:04;;;;;;;;;;;;;;;;;;5086079;28;20465;-64
2023/12/08 14:43:30;;;;;;;;;;;;;;;;;;5086813;28;19912;-65
2023/12/08 14:45:57;;;;;;;;;;;;;;;;;;5088201;28;20005;-65
2023/12/08 14:48:23;;;;;;;;;;;;;;;;;;5083677;28;19920;-65
2023/12/08 14:50:49;;;;;;;;;;;;;;;;;;5089577;28;19931;-65
2023/12/08 14:53:15;;;;;;;;;;;;;;;;;;5095182;28;19908;-65
2023/12/08 14:55:43;;;;;;;;;;;;;;;;;;5085545;28;19916;-65
2023/12/08 14:58:09;;;;;;;;;;;;;;;;;;5090391;28;20253;-65
2023/12/08 15:00:34;;;;;;;;;;;;;;;;;;5079555;28;19959;-65
2023/12/08 15:03:00;;;;;;;;;;;;;;;;;;5095554;28;20304;-65
2023/12/08 15:05:26;;;;;;;;;;;;;;;;;;5091458;28;19991;-65
2023/12/08 15:07:52;;;;;;;;;;;;;;;;;;5095190;28;19930;-65
2023/12/08 15:10:18;;;;;;;;;;;;;;;;;;5088803;28;19959;-64
2023/12/08 15:12:44;;;;;;;;;;;;;;;;;;5090116;28;19914;-65
2023/12/08 15:15:10;;;;;;;;;;;;;;;;;;5093167;28;19912;-65
2023/12/08 15:17:36;;;;;;;;;;;;;;;;;;5086515;28;20398;-64
2023/12/08 15:20:03;;;;;;;;;;;;;;;;;;5085584;28;19951;-65
2023/12/08 15:22:29;;;;;;;;;;;;;;;;;;5079344;28;19917;-64
2023/12/08 15:24:55;;;;;;;;;;;;;;;;;;5084677;28;19920;-65
2023/12/08 15:27:21;;;;;;;;;;;;;;;;;;5077599;28;20311;-65
2023/12/08 15:29:49;;;;;;;;;;;;;;;;;;5087402;28;21552;-65
2023/12/08 15:32:15;;;;;;;;;;;;;;;;;;5083338;28;20360;-64
2023/12/08 15:34:41;;;;;;;;;;;;;;;;;;5083792;28;19916;-64
2023/12/08 15:37:07;;;;;;;;;;;;;;;;;;5088184;28;19916;-65
2023/12/08 15:39:33;;;;;;;;;;;;;;;;;;5084640;28;20444;-65
2023/12/08 15:41:59;;;;;;;;;;;;;;;;;;5084430;28;20375;-64
2023/12/08 15:44:25;;;;;;;;;;;;;;;;;;5092762;28;20013;-65
2023/12/08 15:46:51;;;;;;;;;;;;;;;;;;5084702;28;19931;-65
2023/12/08 15:49:17;;;;;;;;;;;;;;;;;;5087043;28;20275;-64
2023/12/08 15:51:43;;;;;;;;;;;;;;;;;;5086291;28;20005;-65
2023/12/08 15:54:08;;;;;;;;;;;;;;;;;;5084191;28;19912;-64
2023/12/08 15:56:34;;;;;;;;;;;;;;;;;;5091419;28;20346;-62
2023/12/08 15:59:01;;;;;;;;;;;;;;;;;;5084442;28;19912;-60
2023/12/08 16:01:27;;;;;;;;;;;;;;;;;;5086454;28;19909;-60
2023/12/08 16:03:53;;;;;;;;;;;;;;;;;;5087813;28;20010;-59
2023/12/08 16:06:19;;;;;;;;;;;;;;;;;;5088814;28;20348;-60
2023/12/08 16:08:45;;;;;;;;;;;;;;;;;;5092217;28;20279;-60
2023/12/08 16:11:16;;;;;;;;;;;;;;;;;;5091357;28;19941;-60
2023/12/08 16:13:41;;;;;;;;;;;;;;;;;;5082569;28;19920;-60
2023/12/08 16:16:07;;;;;;;;;;;;;;;;;;5092555;28;19951;-60
2023/12/08 16:18:33;;;;;;;;;;;;;;;;;;5083911;28;19970;-59
2023/12/08 16:20:59;;;;;;;;;;;;;;;;;;5083279;28;20434;-63
2023/12/08 16:23:25;;;;;;;;;;;;;;;;;;5082179;28;19947;-60
2023/12/08 16:25:52;;;;;;;;;;;;;;;;;;5073899;28;19915;-59
2023/12/08 16:28:18;;;;;;;;;;;;;;;;;;5090556;28;19916;-60
2023/12/08 16:30:44;;;;;;;;;;;;;;;;;;5092230;28;19920;-60
2023/12/08 16:33:09;;;;;;;;;;;;;;;;;;5086790;28;20287;-60
2023/12/08 16:35:35;;;;;;;;;;;;;;;;;;5076491;28;19923;-60
2023/12/08 16:38:02;;;;;;;;;;;;;;;;;;5081948;28;19970;-60